Fort Stewart, GA

8:01 PM EDT on September 19, 2014 (GMT -0400)
Wright Army Air Field | Change Station
CLOSE
Current Station
Airport
Location: Ft. Stewart,
Elevation: 46 ft
Nearby Weather Stations

Elev 46 ft 31.89 °N, 81.56 °W | Updated 3 minutes ago

Mostly Cloudy
Mostly Cloudy
74 °F
Feels Like 74 °F
N
10
Wind Variable Wind from ENE

Today
High -- | Low -- °F
--% Chance of Precip.
Yesterday
High -- | Low -- °F
Precip. -- in
7:12 AM 7:27 PM
Waning Crescent, 16% visible
Pressure 30.05 in
Visibility 10.0 miles
Clouds Scattered Clouds 8000 ft
Mostly Cloudy 9500 ft
Overcast 20000 ft
Dew Point 68 °F
Humidity 79%
Rainfall 0.00 in
Snow Depth Not available.
UV 0 out of 12
Pollen 7.40 out of 12
Air Quality Not available.
Flu Activity Not available.
METAR KLHW 192358Z AUTO 07009KT 10SM SCT080 BKN095 OVC200 24/20 A3004 RMK AO2 SLP175 T02350197 10268 20235 53015

More Conditions Fewer Conditions

Pressure 30.05 in
Visibility 10.0 miles
Clouds Scattered Clouds 8000 ft
Mostly Cloudy 9500 ft
Overcast 20000 ft
Dew Point 68 °F
Humidity 79%
Rainfall 0.00 in
Snow Depth Not available.
UV 0 out of 12
Pollen 7.40 out of 12
Air Quality Not available.
Flu Activity Not available.
METAR KLHW 192358Z AUTO 07009KT 10SM SCT080 BKN095 OVC200 24/20 A3004 RMK AO2 SLP175 T02350197 10268 20235 53015

More Conditions Fewer Conditions

10-Day Weather Forecast

Almanac

Astronomy

Sep. 19, 2014 Rise Set
Actual Time 7:12 AM EDT 7:27 PM EDT
Civil Twilight 6:48 AM EDT 7:51 PM EDT
Nautical Twilight 6:19 AM EDT 8:19 PM EDT
Astronomical Twilight 5:51 AM EDT 8:48 PM EDT
Moon 3:09 AM EDT (9/19) 4:44 PM EDT (9/19)
Length of Visible Light 13h 02m
Length of Day
12h 14m
Tomorrow will be 1m 56s shorter.
Waning Crescent, 16% of the Moon is Illuminated
Today
Waning Crescent
Sep 24
New
Oct 1
First Quarter
Oct 8
Full
Oct 15
Last Quarter

Today's Extremes

State Highs State Lows

Community

WunderPhotos

Upload Photos

1,754,734 photos uploaded!

WunderBlogs® & News

Nearby

Snow Depth

Station Depth Elevation
No new snow has been reported.

Earthquake Activity

City Distance Mag. Time & Date
New Ellenton, South Carolina 110 miles 2.6 4:38 PM EDT
2014-09-19
Minimum magnitude displayed is 2.5.

Coastal Water Temperatures

Place Temperature
No Stations Reporting

Nearby Weather Stations